VBW weather

Bridgewater Air Park
Bridgewater, Virginia, United States

Public forecast

Using degrees Fahrenheit for public forecast. Weather courtesy of forecast.io.

METAR (pilot weather report)

Closest report is Shenandoah Valley Regional Airport, 6.9 nm (12.7 km) SSE. Retrieved 2019/07/20 15:30 UTC (25 minutes ago):

KSHD 201530Z AUTO 16005KT 10SM BKN045 32/22 A3005 RMK AO2 T03180218

TAF (pilot weather forecast)

Closest forecast is Charlottesville Albemarle Airport, 27.6 nm (51.1 km) ESE. Retrieved 2019/07/20 12:24 UTC (4 hours ago):

TAF KCHO 201123Z 2012/2112 VRB03KT P6SM FEW250 FM201700 22005KT P6SM SCT050 FM210100 VRB03KT P6SM SCT250